sensor_id;sensor_type;location;lat;lon;timestamp;temperature;humidity
59857;DHT22;45733;52.668;6.860;2023-08-24T00:01:09;16.30;99.90
59857;DHT22;45733;52.668;6.860;2023-08-24T00:03:36;16.40;99.90
59857;DHT22;45733;52.668;6.860;2023-08-24T00:06:02;16.40;99.90
59857;DHT22;45733;52.668;6.860;2023-08-24T00:08:28;16.20;99.90
59857;DHT22;45733;52.668;6.860;2023-08-24T00:10:54;16.20;99.90
59857;DHT22;45733;52.668;6.860;2023-08-24T00:13:20;16.30;99.90
59857;DHT22;45733;52.668;6.860;2023-08-24T00:15:46;16.10;99.90
59857;DHT22;45733;52.668;6.860;2023-08-24T00:18:11;16.20;99.90
59857;DHT22;45733;52.668;6.860;2023-08-24T00:20:37;16.10;99.90
59857;DHT22;45733;52.668;6.860;2023-08-24T00:23:03;16.00;99.90
59857;DHT22;45733;52.668;6.860;2023-08-24T00:25:32;16.10;99.90
59857;DHT22;45733;52.668;6.860;2023-08-24T00:27:58;16.00;99.90
59857;DHT22;45733;52.668;6.860;2023-08-24T00:30:24;16.10;99.90
59857;DHT22;45733;52.668;6.860;2023-08-24T00:32:49;16.00;99.90
59857;DHT22;45733;52.668;6.860;2023-08-24T00:35:15;16.10;99.90
59857;DHT22;45733;52.668;6.860;2023-08-24T00:37:41;16.00;99.90
59857;DHT22;45733;52.668;6.860;2023-08-24T00:40:08;16.00;99.90
59857;DHT22;45733;52.668;6.860;2023-08-24T00:42:45;16.00;99.90
59857;DHT22;45733;52.668;6.860;2023-08-24T00:45:14;15.90;99.90
59857;DHT22;45733;52.668;6.860;2023-08-24T00:47:44;15.80;99.90
59857;DHT22;45733;52.668;6.860;2023-08-24T00:50:10;15.80;99.90
59857;DHT22;45733;52.668;6.860;2023-08-24T00:52:40;15.80;99.90
59857;DHT22;45733;52.668;6.860;2023-08-24T00:55:07;15.70;99.90
59857;DHT22;45733;52.668;6.860;2023-08-24T00:57:33;15.70;99.90
59857;DHT22;45733;52.668;6.860;2023-08-24T01:00:04;15.90;99.90
59857;DHT22;45733;52.668;6.860;2023-08-24T01:02:39;15.90;99.90
59857;DHT22;45733;52.668;6.860;2023-08-24T01:05:06;15.70;99.90
59857;DHT22;45733;52.668;6.860;2023-08-24T01:07:37;15.90;99.90
59857;DHT22;45733;52.668;6.860;2023-08-24T01:10:04;15.90;99.90
59857;DHT22;45733;52.668;6.860;2023-08-24T01:15:22;15.60;99.90
59857;DHT22;45733;52.668;6.860;2023-08-24T01:17:52;15.80;99.90
59857;DHT22;45733;52.668;6.860;2023-08-24T01:20:21;15.90;99.90
59857;DHT22;45733;52.668;6.860;2023-08-24T01:23:09;15.90;99.90
59857;DHT22;45733;52.668;6.860;2023-08-24T01:26:16;15.80;99.90
59857;DHT22;45733;52.668;6.860;2023-08-24T01:28:41;16.00;99.90
59857;DHT22;45733;52.668;6.860;2023-08-24T01:31:08;15.90;99.90
59857;DHT22;45733;52.668;6.860;2023-08-24T01:33:34;16.10;99.90
59857;DHT22;45733;52.668;6.860;2023-08-24T01:36:00;16.00;99.90
59857;DHT22;45733;52.668;6.860;2023-08-24T01:38:26;16.00;99.90
59857;DHT22;45733;52.668;6.860;2023-08-24T01:41:14;16.20;99.90
59857;DHT22;45733;52.668;6.860;2023-08-24T01:43:44;16.10;99.90
59857;DHT22;45733;52.668;6.860;2023-08-24T01:46:14;16.30;99.90
59857;DHT22;45733;52.668;6.860;2023-08-24T01:48:41;16.20;99.90
59857;DHT22;45733;52.668;6.860;2023-08-24T01:51:07;16.20;99.90
59857;DHT22;45733;52.668;6.860;2023-08-24T01:53:36;16.30;99.90
59857;DHT22;45733;52.668;6.860;2023-08-24T01:56:11;16.20;99.90
59857;DHT22;45733;52.668;6.860;2023-08-24T01:58:37;16.20;99.90
59857;DHT22;45733;52.668;6.860;2023-08-24T02:01:04;16.30;99.90
59857;DHT22;45733;52.668;6.860;2023-08-24T02:03:29;16.30;99.90
59857;DHT22;45733;52.668;6.860;2023-08-24T02:05:56;16.50;99.90
59857;DHT22;45733;52.668;6.860;2023-08-24T02:08:22;16.40;99.90
59857;DHT22;45733;52.668;6.860;2023-08-24T02:10:48;16.40;99.90
59857;DHT22;45733;52.668;6.860;2023-08-24T02:13:13;16.60;99.90
59857;DHT22;45733;52.668;6.860;2023-08-24T02:15:39;16.50;99.90
59857;DHT22;45733;52.668;6.860;2023-08-24T02:18:08;16.60;99.90
59857;DHT22;45733;52.668;6.860;2023-08-24T02:20:35;16.60;99.90
59857;DHT22;45733;52.668;6.860;2023-08-24T02:23:01;16.50;99.90
59857;DHT22;45733;52.668;6.860;2023-08-24T02:25:27;16.60;99.90
59857;DHT22;45733;52.668;6.860;2023-08-24T02:27:52;16.70;99.90
59857;DHT22;45733;52.668;6.860;2023-08-24T02:30:18;16.60;99.90
59857;DHT22;45733;52.668;6.860;2023-08-24T02:32:44;16.60;99.90
59857;DHT22;45733;52.668;6.860;2023-08-24T02:35:09;16.80;99.90
59857;DHT22;45733;52.668;6.860;2023-08-24T02:37:35;16.70;99.90
59857;DHT22;45733;52.668;6.860;2023-08-24T02:40:01;16.80;99.90
59857;DHT22;45733;52.668;6.860;2023-08-24T02:42:27;16.90;99.90
59857;DHT22;45733;52.668;6.860;2023-08-24T02:44:52;16.60;99.90
59857;DHT22;45733;52.668;6.860;2023-08-24T02:47:18;16.90;99.90
59857;DHT22;45733;52.668;6.860;2023-08-24T02:49:44;16.70;99.90
59857;DHT22;45733;52.668;6.860;2023-08-24T02:52:09;16.70;99.90
59857;DHT22;45733;52.668;6.860;2023-08-24T02:54:35;16.80;99.90
59857;DHT22;45733;52.668;6.860;2023-08-24T02:57:01;16.80;99.90
59857;DHT22;45733;52.668;6.860;2023-08-24T02:59:26;16.80;99.90
59857;DHT22;45733;52.668;6.860;2023-08-24T03:01:52;16.80;99.90
59857;DHT22;45733;52.668;6.860;2023-08-24T03:04:18;16.70;99.90
59857;DHT22;45733;52.668;6.860;2023-08-24T03:06:44;16.60;99.90
59857;DHT22;45733;52.668;6.860;2023-08-24T03:09:10;16.80;99.90
59857;DHT22;45733;52.668;6.860;2023-08-24T03:11:36;16.60;99.90
59857;DHT22;45733;52.668;6.860;2023-08-24T03:14:01;16.70;99.90
59857;DHT22;45733;52.668;6.860;2023-08-24T03:16:27;16.70;99.90
59857;DHT22;45733;52.668;6.860;2023-08-24T03:18:53;16.60;99.90
59857;DHT22;45733;52.668;6.860;2023-08-24T03:21:18;16.50;99.90
59857;DHT22;45733;52.668;6.860;2023-08-24T03:23:44;16.50;99.90
59857;DHT22;45733;52.668;6.860;2023-08-24T03:26:10;16.40;99.90
59857;DHT22;45733;52.668;6.860;2023-08-24T03:28:35;16.40;99.90
59857;DHT22;45733;52.668;6.860;2023-08-24T03:31:01;16.60;99.90
59857;DHT22;45733;52.668;6.860;2023-08-24T03:33:27;16.60;99.90
59857;DHT22;45733;52.668;6.860;2023-08-24T03:35:53;16.50;99.90
59857;DHT22;45733;52.668;6.860;2023-08-24T03:38:19;16.70;99.90
59857;DHT22;45733;52.668;6.860;2023-08-24T03:40:45;16.70;99.90
59857;DHT22;45733;52.668;6.860;2023-08-24T03:43:11;16.40;99.90
59857;DHT22;45733;52.668;6.860;2023-08-24T03:45:37;16.40;99.90
59857;DHT22;45733;52.668;6.860;2023-08-24T03:48:02;16.60;99.90
59857;DHT22;45733;52.668;6.860;2023-08-24T03:50:28;16.60;99.90
59857;DHT22;45733;52.668;6.860;2023-08-24T03:52:54;16.60;99.90
59857;DHT22;45733;52.668;6.860;2023-08-24T03:55:20;16.50;99.90
59857;DHT22;45733;52.668;6.860;2023-08-24T03:57:46;16.60;99.90
59857;DHT22;45733;52.668;6.860;2023-08-24T04:00:12;16.50;99.90
59857;DHT22;45733;52.668;6.860;2023-08-24T04:02:42;16.50;99.90
59857;DHT22;45733;52.668;6.860;2023-08-24T04:05:08;16.60;99.90
59857;DHT22;45733;52.668;6.860;2023-08-24T04:07:33;16.50;99.90
59857;DHT22;45733;52.668;6.860;2023-08-24T04:10:02;16.30;99.90
59857;DHT22;45733;52.668;6.860;2023-08-24T04:12:30;16.40;99.90
59857;DHT22;45733;52.668;6.860;2023-08-24T04:14:56;16.10;99.90
59857;DHT22;45733;52.668;6.860;2023-08-24T04:17:23;16.50;99.90
59857;DHT22;45733;52.668;6.860;2023-08-24T04:19:49;16.30;99.90
59857;DHT22;45733;52.668;6.860;2023-08-24T04:22:15;16.20;99.90
59857;DHT22;45733;52.668;6.860;2023-08-24T04:24:41;16.40;99.90
59857;DHT22;45733;52.668;6.860;2023-08-24T04:27:07;16.30;99.90
59857;DHT22;45733;52.668;6.860;2023-08-24T04:29:33;16.00;99.90
59857;DHT22;45733;52.668;6.860;2023-08-24T04:31:58;16.40;99.90
59857;DHT22;45733;52.668;6.860;2023-08-24T04:34:24;16.40;99.90
59857;DHT22;45733;52.668;6.860;2023-08-24T04:36:50;16.20;99.90
59857;DHT22;45733;52.668;6.860;2023-08-24T04:39:15;16.10;99.90
59857;DHT22;45733;52.668;6.860;2023-08-24T04:41:42;16.10;99.90
59857;DHT22;45733;52.668;6.860;2023-08-24T04:44:07;16.30;99.90
59857;DHT22;45733;52.668;6.860;2023-08-24T04:46:33;16.10;99.90
59857;DHT22;45733;52.668;6.860;2023-08-24T04:48:59;16.00;99.90
59857;DHT22;45733;52.668;6.860;2023-08-24T04:51:25;16.20;99.90
59857;DHT22;45733;52.668;6.860;2023-08-24T04:53:53;16.20;99.90
59857;DHT22;45733;52.668;6.860;2023-08-24T04:56:19;16.20;99.90
59857;DHT22;45733;52.668;6.860;2023-08-24T04:58:58;16.10;99.90
59857;DHT22;45733;52.668;6.860;2023-08-24T05:01:26;16.10;99.90
59857;DHT22;45733;52.668;6.860;2023-08-24T05:03:53;16.20;99.90
59857;DHT22;45733;52.668;6.860;2023-08-24T05:06:19;16.20;99.90
59857;DHT22;45733;52.668;6.860;2023-08-24T05:08:45;16.20;99.90
59857;DHT22;45733;52.668;6.860;2023-08-24T05:11:19;16.60;99.90
59857;DHT22;45733;52.668;6.860;2023-08-24T05:13:45;16.40;99.90
59857;DHT22;45733;52.668;6.860;2023-08-24T05:16:13;16.50;99.90
59857;DHT22;45733;52.668;6.860;2023-08-24T05:18:39;17.00;99.90
59857;DHT22;45733;52.668;6.860;2023-08-24T05:21:05;17.70;99.90
59857;DHT22;45733;52.668;6.860;2023-08-24T05:23:35;17.90;99.90
59857;DHT22;45733;52.668;6.860;2023-08-24T05:26:02;18.50;99.90
59857;DHT22;45733;52.668;6.860;2023-08-24T05:28:29;18.60;99.90
59857;DHT22;45733;52.668;6.860;2023-08-24T05:30:55;19.00;99.90
59857;DHT22;45733;52.668;6.860;2023-08-24T05:33:22;19.40;99.90
59857;DHT22;45733;52.668;6.860;2023-08-24T05:35:49;19.50;99.90
59857;DHT22;45733;52.668;6.860;2023-08-24T05:38:16;19.90;99.90
59857;DHT22;45733;52.668;6.860;2023-08-24T05:40:42;20.10;99.90
59857;DHT22;45733;52.668;6.860;2023-08-24T05:43:11;20.20;99.90
59857;DHT22;45733;52.668;6.860;2023-08-24T05:45:37;20.50;99.90
59857;DHT22;45733;52.668;6.860;2023-08-24T05:48:05;20.60;99.90
59857;DHT22;45733;52.668;6.860;2023-08-24T05:50:31;20.90;99.90
59857;DHT22;45733;52.668;6.860;2023-08-24T05:52:56;21.30;99.90
59857;DHT22;45733;52.668;6.860;2023-08-24T05:55:22;19.20;99.90
59857;DHT22;45733;52.668;6.860;2023-08-24T05:57:48;19.30;99.90
59857;DHT22;45733;52.668;6.860;2023-08-24T06:00:14;19.00;99.90
59857;DHT22;45733;52.668;6.860;2023-08-24T06:02:40;19.00;99.90
59857;DHT22;45733;52.668;6.860;2023-08-24T06:05:07;18.80;99.90
59857;DHT22;45733;52.668;6.860;2023-08-24T06:07:33;19.00;99.90
59857;DHT22;45733;52.668;6.860;2023-08-24T06:09:59;19.00;99.90
59857;DHT22;45733;52.668;6.860;2023-08-24T06:12:25;18.90;99.90
59857;DHT22;45733;52.668;6.860;2023-08-24T06:14:50;19.10;99.90
59857;DHT22;45733;52.668;6.860;2023-08-24T06:17:16;18.90;99.90
59857;DHT22;45733;52.668;6.860;2023-08-24T06:19:42;19.00;99.90
59857;DHT22;45733;52.668;6.860;2023-08-24T06:22:08;19.10;99.90
59857;DHT22;45733;52.668;6.860;2023-08-24T06:24:35;18.90;99.90
59857;DHT22;45733;52.668;6.860;2023-08-24T06:27:01;18.90;99.90
59857;DHT22;45733;52.668;6.860;2023-08-24T06:29:30;19.00;99.90
59857;DHT22;45733;52.668;6.860;2023-08-24T06:31:56;19.20;99.90
59857;DHT22;45733;52.668;6.860;2023-08-24T06:34:22;19.20;99.90
59857;DHT22;45733;52.668;6.860;2023-08-24T06:36:49;19.60;99.90
59857;DHT22;45733;52.668;6.860;2023-08-24T06:39:16;19.30;99.90
59857;DHT22;45733;52.668;6.860;2023-08-24T06:41:41;19.70;99.90
59857;DHT22;45733;52.668;6.860;2023-08-24T06:44:07;19.40;99.90
59857;DHT22;45733;52.668;6.860;2023-08-24T06:46:33;19.40;99.90
59857;DHT22;45733;52.668;6.860;2023-08-24T06:48:59;18.90;99.90
59857;DHT22;45733;52.668;6.860;2023-08-24T06:51:25;18.90;99.90
59857;DHT22;45733;52.668;6.860;2023-08-24T06:53:50;19.10;99.90
59857;DHT22;45733;52.668;6.860;2023-08-24T06:56:16;19.40;99.90
59857;DHT22;45733;52.668;6.860;2023-08-24T06:58:43;19.70;99.90
59857;DHT22;45733;52.668;6.860;2023-08-24T07:01:08;20.00;99.90
59857;DHT22;45733;52.668;6.860;2023-08-24T07:03:34;20.10;99.90
59857;DHT22;45733;52.668;6.860;2023-08-24T07:06:00;20.00;99.90
59857;DHT22;45733;52.668;6.860;2023-08-24T07:08:25;20.10;99.90
59857;DHT22;45733;52.668;6.860;2023-08-24T07:10:51;20.40;99.90
59857;DHT22;45733;52.668;6.860;2023-08-24T07:13:17;20.40;99.90
59857;DHT22;45733;52.668;6.860;2023-08-24T07:15:43;20.70;99.90
59857;DHT22;45733;52.668;6.860;2023-08-24T07:18:10;20.90;99.90
59857;DHT22;45733;52.668;6.860;2023-08-24T07:20:37;21.30;99.90
59857;DHT22;45733;52.668;6.860;2023-08-24T07:23:03;21.10;99.90
59857;DHT22;45733;52.668;6.860;2023-08-24T07:25:29;20.80;99.90
59857;DHT22;45733;52.668;6.860;2023-08-24T07:27:55;20.90;99.90
59857;DHT22;45733;52.668;6.860;2023-08-24T07:30:28;20.90;99.90
59857;DHT22;45733;52.668;6.860;2023-08-24T07:32:53;21.00;99.90
59857;DHT22;45733;52.668;6.860;2023-08-24T07:35:20;21.30;99.90
59857;DHT22;45733;52.668;6.860;2023-08-24T07:37:49;21.30;99.90
59857;DHT22;45733;52.668;6.860;2023-08-24T07:40:15;21.60;99.90
59857;DHT22;45733;52.668;6.860;2023-08-24T07:42:48;21.50;99.90
59857;DHT22;45733;52.668;6.860;2023-08-24T07:45:16;21.50;99.90
59857;DHT22;45733;52.668;6.860;2023-08-24T07:51:23;21.50;99.90
59857;DHT22;45733;52.668;6.860;2023-08-24T07:53:49;22.00;99.90
59857;DHT22;45733;52.668;6.860;2023-08-24T07:56:20;22.00;99.90
59857;DHT22;45733;52.668;6.860;2023-08-24T07:58:46;22.40;99.90
59857;DHT22;45733;52.668;6.860;2023-08-24T08:01:11;22.60;99.90
59857;DHT22;45733;52.668;6.860;2023-08-24T08:03:37;22.40;99.90
59857;DHT22;45733;52.668;6.860;2023-08-24T08:06:03;22.30;99.90
59857;DHT22;45733;52.668;6.860;2023-08-24T08:08:30;22.10;99.90
59857;DHT22;45733;52.668;6.860;2023-08-24T08:11:00;22.60;99.90
59857;DHT22;45733;52.668;6.860;2023-08-24T08:13:27;22.50;99.90
59857;DHT22;45733;52.668;6.860;2023-08-24T08:15:53;22.50;99.90
59857;DHT22;45733;52.668;6.860;2023-08-24T08:18:19;22.70;99.90
59857;DHT22;45733;52.668;6.860;2023-08-24T08:20:45;22.90;99.90
59857;DHT22;45733;52.668;6.860;2023-08-24T08:23:10;22.60;99.90
59857;DHT22;45733;52.668;6.860;2023-08-24T08:25:36;23.40;99.90
59857;DHT22;45733;52.668;6.860;2023-08-24T08:28:05;23.30;99.90
59857;DHT22;45733;52.668;6.860;2023-08-24T08:30:30;23.40;99.90
59857;DHT22;45733;52.668;6.860;2023-08-24T08:32:56;23.70;99.90
59857;DHT22;45733;52.668;6.860;2023-08-24T08:35:22;23.50;99.90
59857;DHT22;45733;52.668;6.860;2023-08-24T08:37:48;23.40;99.90
59857;DHT22;45733;52.668;6.860;2023-08-24T08:40:16;23.40;99.90
59857;DHT22;45733;52.668;6.860;2023-08-24T08:42:42;23.60;99.90
59857;DHT22;45733;52.668;6.860;2023-08-24T08:45:09;23.60;99.90
59857;DHT22;45733;52.668;6.860;2023-08-24T08:47:35;23.40;99.90
59857;DHT22;45733;52.668;6.860;2023-08-24T08:50:05;23.90;99.90
59857;DHT22;45733;52.668;6.860;2023-08-24T08:52:34;24.40;99.90
59857;DHT22;45733;52.668;6.860;2023-08-24T08:55:00;24.50;99.90
59857;DHT22;45733;52.668;6.860;2023-08-24T08:57:26;24.20;99.90
59857;DHT22;45733;52.668;6.860;2023-08-24T08:59:52;24.40;99.90
59857;DHT22;45733;52.668;6.860;2023-08-24T09:02:20;24.10;99.90
59857;DHT22;45733;52.668;6.860;2023-08-24T09:04:48;24.40;99.90
59857;DHT22;45733;52.668;6.860;2023-08-24T09:07:16;24.60;99.90
59857;DHT22;45733;52.668;6.860;2023-08-24T09:09:42;25.00;99.90
59857;DHT22;45733;52.668;6.860;2023-08-24T09:12:08;24.90;99.90
59857;DHT22;45733;52.668;6.860;2023-08-24T09:14:34;25.10;99.90
59857;DHT22;45733;52.668;6.860;2023-08-24T09:17:01;24.90;99.90
59857;DHT22;45733;52.668;6.860;2023-08-24T09:19:30;24.80;99.90
59857;DHT22;45733;52.668;6.860;2023-08-24T09:21:57;25.20;99.90
59857;DHT22;45733;52.668;6.860;2023-08-24T09:24:33;25.60;99.90
59857;DHT22;45733;52.668;6.860;2023-08-24T09:27:00;25.10;99.90
59857;DHT22;45733;52.668;6.860;2023-08-24T09:29:36;25.00;99.90
59857;DHT22;45733;52.668;6.860;2023-08-24T09:32:02;25.20;99.90
59857;DHT22;45733;52.668;6.860;2023-08-24T09:34:28;25.30;99.90
59857;DHT22;45733;52.668;6.860;2023-08-24T09:36:56;25.50;99.90
59857;DHT22;45733;52.668;6.860;2023-08-24T09:39:23;25.10;99.90
59857;DHT22;45733;52.668;6.860;2023-08-24T09:41:49;25.70;99.90
59857;DHT22;45733;52.668;6.860;2023-08-24T09:44:18;25.90;99.90
59857;DHT22;45733;52.668;6.860;2023-08-24T09:46:44;26.00;99.90
59857;DHT22;45733;52.668;6.860;2023-08-24T09:49:11;26.20;99.90
59857;DHT22;45733;52.668;6.860;2023-08-24T09:51:39;26.20;99.90
59857;DHT22;45733;52.668;6.860;2023-08-24T09:54:10;25.60;99.90
59857;DHT22;45733;52.668;6.860;2023-08-24T09:56:38;25.10;99.90
59857;DHT22;45733;52.668;6.860;2023-08-24T09:59:17;25.10;99.90
59857;DHT22;45733;52.668;6.860;2023-08-24T10:01:50;25.40;99.90
59857;DHT22;45733;52.668;6.860;2023-08-24T10:04:28;25.80;99.90
59857;DHT22;45733;52.668;6.860;2023-08-24T10:07:09;25.50;99.90
59857;DHT22;45733;52.668;6.860;2023-08-24T10:09:53;24.90;99.90
59857;DHT22;45733;52.668;6.860;2023-08-24T10:12:25;24.80;99.90
59857;DHT22;45733;52.668;6.860;2023-08-24T10:15:02;24.80;99.90
59857;DHT22;45733;52.668;6.860;2023-08-24T10:17:31;24.90;99.90
59857;DHT22;45733;52.668;6.860;2023-08-24T10:19:58;24.80;99.90
59857;DHT22;45733;52.668;6.860;2023-08-24T10:22:31;24.90;99.90
59857;DHT22;45733;52.668;6.860;2023-08-24T10:24:59;24.80;99.90
59857;DHT22;45733;52.668;6.860;2023-08-24T10:27:27;24.80;99.90
59857;DHT22;45733;52.668;6.860;2023-08-24T10:29:53;24.70;99.90
59857;DHT22;45733;52.668;6.860;2023-08-24T10:32:22;24.50;99.90
59857;DHT22;45733;52.668;6.860;2023-08-24T10:34:50;24.40;99.90
59857;DHT22;45733;52.668;6.860;2023-08-24T10:37:15;24.30;99.90
59857;DHT22;45733;52.668;6.860;2023-08-24T10:39:46;24.20;99.90
59857;DHT22;45733;52.668;6.860;2023-08-24T10:42:13;24.20;99.90
59857;DHT22;45733;52.668;6.860;2023-08-24T10:44:45;24.20;99.90
59857;DHT22;45733;52.668;6.860;2023-08-24T10:52:35;24.20;99.90
59857;DHT22;45733;52.668;6.860;2023-08-24T10:55:03;24.30;99.90
59857;DHT22;45733;52.668;6.860;2023-08-24T10:57:37;24.40;99.90
59857;DHT22;45733;52.668;6.860;2023-08-24T11:00:11;24.40;99.90
59857;DHT22;45733;52.668;6.860;2023-08-24T11:02:47;24.40;99.90
59857;DHT22;45733;52.668;6.860;2023-08-24T11:05:18;24.60;99.90
59857;DHT22;45733;52.668;6.860;2023-08-24T11:08:04;24.50;99.90
59857;DHT22;45733;52.668;6.860;2023-08-24T11:10:46;24.70;99.90
59857;DHT22;45733;52.668;6.860;2023-08-24T11:13:16;24.70;99.90
59857;DHT22;45733;52.668;6.860;2023-08-24T11:15:48;24.70;99.90
59857;DHT22;45733;52.668;6.860;2023-08-24T11:18:24;24.90;99.90
59857;DHT22;45733;52.668;6.860;2023-08-24T11:23:24;24.80;99.90
59857;DHT22;45733;52.668;6.860;2023-08-24T11:25:52;25.00;99.90
59857;DHT22;45733;52.668;6.860;2023-08-24T11:28:26;25.20;99.90
59857;DHT22;45733;52.668;6.860;2023-08-24T11:30:53;25.60;99.90
59857;DHT22;45733;52.668;6.860;2023-08-24T11:33:29;25.70;99.90
59857;DHT22;45733;52.668;6.860;2023-08-24T11:35:55;25.80;99.90
59857;DHT22;45733;52.668;6.860;2023-08-24T11:38:21;25.50;99.90
59857;DHT22;45733;52.668;6.860;2023-08-24T11:40:47;25.80;99.90
59857;DHT22;45733;52.668;6.860;2023-08-24T11:43:21;25.90;99.90
59857;DHT22;45733;52.668;6.860;2023-08-24T11:45:47;25.60;99.90
59857;DHT22;45733;52.668;6.860;2023-08-24T11:48:14;25.80;99.90
59857;DHT22;45733;52.668;6.860;2023-08-24T11:50:40;26.10;99.90
59857;DHT22;45733;52.668;6.860;2023-08-24T11:53:07;25.90;99.90
59857;DHT22;45733;52.668;6.860;2023-08-24T11:55:32;25.60;99.90
59857;DHT22;45733;52.668;6.860;2023-08-24T11:57:59;25.70;99.90
59857;DHT22;45733;52.668;6.860;2023-08-24T12:00:25;25.60;99.90
59857;DHT22;45733;52.668;6.860;2023-08-24T12:02:52;25.50;99.90
59857;DHT22;45733;52.668;6.860;2023-08-24T12:05:25;25.40;99.90
59857;DHT22;45733;52.668;6.860;2023-08-24T12:07:52;25.60;99.90
59857;DHT22;45733;52.668;6.860;2023-08-24T12:10:19;25.40;99.90
59857;DHT22;45733;52.668;6.860;2023-08-24T12:12:45;25.50;99.90
59857;DHT22;45733;52.668;6.860;2023-08-24T12:15:18;25.50;99.90
59857;DHT22;45733;52.668;6.860;2023-08-24T12:17:46;25.30;99.90
59857;DHT22;45733;52.668;6.860;2023-08-24T12:20:20;25.30;99.90
59857;DHT22;45733;52.668;6.860;2023-08-24T12:22:54;25.60;99.90
59857;DHT22;45733;52.668;6.860;2023-08-24T12:25:24;25.80;99.90
59857;DHT22;45733;52.668;6.860;2023-08-24T12:27:51;26.00;99.90
59857;DHT22;45733;52.668;6.860;2023-08-24T12:30:18;26.20;99.90
59857;DHT22;45733;52.668;6.860;2023-08-24T12:32:45;26.40;99.90
59857;DHT22;45733;52.668;6.860;2023-08-24T12:35:13;26.30;99.90
59857;DHT22;45733;52.668;6.860;2023-08-24T12:37:39;27.20;99.90
59857;DHT22;45733;52.668;6.860;2023-08-24T12:40:06;27.20;99.90
59857;DHT22;45733;52.668;6.860;2023-08-24T12:42:32;27.10;99.90
59857;DHT22;45733;52.668;6.860;2023-08-24T12:44:58;27.70;99.90
59857;DHT22;45733;52.668;6.860;2023-08-24T12:47:23;27.90;99.90
59857;DHT22;45733;52.668;6.860;2023-08-24T12:49:49;27.40;99.90
59857;DHT22;45733;52.668;6.860;2023-08-24T12:52:16;27.20;99.90
59857;DHT22;45733;52.668;6.860;2023-08-24T12:54:42;27.60;99.90
59857;DHT22;45733;52.668;6.860;2023-08-24T12:57:08;28.40;99.90
59857;DHT22;45733;52.668;6.860;2023-08-24T12:59:34;28.00;99.90
59857;DHT22;45733;52.668;6.860;2023-08-24T13:01:59;27.30;99.90
59857;DHT22;45733;52.668;6.860;2023-08-24T13:04:26;27.60;99.90
59857;DHT22;45733;52.668;6.860;2023-08-24T13:06:53;27.30;99.90
59857;DHT22;45733;52.668;6.860;2023-08-24T13:09:19;27.70;99.90
59857;DHT22;45733;52.668;6.860;2023-08-24T13:11:45;27.10;99.90
59857;DHT22;45733;52.668;6.860;2023-08-24T13:14:10;27.20;99.90
59857;DHT22;45733;52.668;6.860;2023-08-24T13:16:36;27.30;99.90
59857;DHT22;45733;52.668;6.860;2023-08-24T13:19:02;27.40;99.90
59857;DHT22;45733;52.668;6.860;2023-08-24T13:21:27;27.00;99.90
59857;DHT22;45733;52.668;6.860;2023-08-24T13:23:53;26.70;99.90
59857;DHT22;45733;52.668;6.860;2023-08-24T13:26:20;26.80;99.90
59857;DHT22;45733;52.668;6.860;2023-08-24T13:28:49;26.90;99.90
59857;DHT22;45733;52.668;6.860;2023-08-24T13:31:15;27.20;99.90
59857;DHT22;45733;52.668;6.860;2023-08-24T13:33:41;27.30;99.90
59857;DHT22;45733;52.668;6.860;2023-08-24T13:36:10;27.50;99.90
59857;DHT22;45733;52.668;6.860;2023-08-24T13:38:35;27.20;99.90
59857;DHT22;45733;52.668;6.860;2023-08-24T13:41:01;27.10;99.90
59857;DHT22;45733;52.668;6.860;2023-08-24T13:43:27;27.20;99.90
59857;DHT22;45733;52.668;6.860;2023-08-24T13:45:53;27.20;99.90
59857;DHT22;45733;52.668;6.860;2023-08-24T13:48:18;27.30;99.90
59857;DHT22;45733;52.668;6.860;2023-08-24T13:50:51;27.10;99.90
59857;DHT22;45733;52.668;6.860;2023-08-24T13:53:20;27.00;99.90
59857;DHT22;45733;52.668;6.860;2023-08-24T13:55:48;27.30;99.90
59857;DHT22;45733;52.668;6.860;2023-08-24T13:58:14;26.90;99.90
59857;DHT22;45733;52.668;6.860;2023-08-24T14:00:40;26.90;99.90
59857;DHT22;45733;52.668;6.860;2023-08-24T14:03:05;26.70;99.90
59857;DHT22;45733;52.668;6.860;2023-08-24T14:05:31;26.50;99.90
59857;DHT22;45733;52.668;6.860;2023-08-24T14:07:57;26.40;99.90
59857;DHT22;45733;52.668;6.860;2023-08-24T14:10:22;26.20;99.90
59857;DHT22;45733;52.668;6.860;2023-08-24T14:12:49;26.00;99.90
59857;DHT22;45733;52.668;6.860;2023-08-24T14:15:15;25.80;99.90
59857;DHT22;45733;52.668;6.860;2023-08-24T14:17:41;25.70;99.90
59857;DHT22;45733;52.668;6.860;2023-08-24T14:20:07;25.60;99.90
59857;DHT22;45733;52.668;6.860;2023-08-24T14:22:34;25.50;99.90
59857;DHT22;45733;52.668;6.860;2023-08-24T14:25:00;25.40;99.90
59857;DHT22;45733;52.668;6.860;2023-08-24T14:27:26;25.40;99.90
59857;DHT22;45733;52.668;6.860;2023-08-24T14:29:54;25.30;99.90
59857;DHT22;45733;52.668;6.860;2023-08-24T14:32:26;25.40;99.90
59857;DHT22;45733;52.668;6.860;2023-08-24T14:34:52;25.30;99.90
59857;DHT22;45733;52.668;6.860;2023-08-24T14:37:20;25.30;99.90
59857;DHT22;45733;52.668;6.860;2023-08-24T14:39:49;25.40;99.90
59857;DHT22;45733;52.668;6.860;2023-08-24T14:42:15;25.40;99.90
59857;DHT22;45733;52.668;6.860;2023-08-24T14:44:41;25.40;99.90
59857;DHT22;45733;52.668;6.860;2023-08-24T14:47:06;25.30;99.90
59857;DHT22;45733;52.668;6.860;2023-08-24T14:49:32;25.30;99.90
59857;DHT22;45733;52.668;6.860;2023-08-24T14:51:58;25.30;99.90
59857;DHT22;45733;52.668;6.860;2023-08-24T14:54:23;25.30;99.90
59857;DHT22;45733;52.668;6.860;2023-08-24T14:56:49;25.20;99.90
59857;DHT22;45733;52.668;6.860;2023-08-24T14:59:15;25.20;99.90
59857;DHT22;45733;52.668;6.860;2023-08-24T15:01:40;25.10;99.90
59857;DHT22;45733;52.668;6.860;2023-08-24T15:04:06;25.20;99.90
59857;DHT22;45733;52.668;6.860;2023-08-24T15:06:32;25.10;99.90
59857;DHT22;45733;52.668;6.860;2023-08-24T15:08:58;25.10;99.90
59857;DHT22;45733;52.668;6.860;2023-08-24T15:11:24;24.90;99.90
59857;DHT22;45733;52.668;6.860;2023-08-24T15:13:50;25.00;99.90
59857;DHT22;45733;52.668;6.860;2023-08-24T15:16:15;25.00;99.90
59857;DHT22;45733;52.668;6.860;2023-08-24T15:18:53;25.00;99.90
59857;DHT22;45733;52.668;6.860;2023-08-24T15:21:19;25.10;99.90
59857;DHT22;45733;52.668;6.860;2023-08-24T15:23:44;25.10;99.90
59857;DHT22;45733;52.668;6.860;2023-08-24T15:26:10;25.00;99.90
59857;DHT22;45733;52.668;6.860;2023-08-24T15:28:40;25.10;99.90
59857;DHT22;45733;52.668;6.860;2023-08-24T15:31:23;25.10;99.90
59857;DHT22;45733;52.668;6.860;2023-08-24T15:33:49;25.20;99.90
59857;DHT22;45733;52.668;6.860;2023-08-24T15:36:14;25.30;99.90
59857;DHT22;45733;52.668;6.860;2023-08-24T15:38:40;25.30;99.90
59857;DHT22;45733;52.668;6.860;2023-08-24T15:41:06;25.30;99.90
59857;DHT22;45733;52.668;6.860;2023-08-24T15:43:31;25.50;99.90
59857;DHT22;45733;52.668;6.860;2023-08-24T15:45:57;25.40;99.90